sensor_id;sensor_type;location;lat;lon;timestamp;pressure;altitude;pressure_sealevel;temperature;humidity
12793;BME280;6460;42.684;23.260;2023-04-20T00:01:24;94220.66;;;10.48;79.17
12793;BME280;6460;42.684;23.260;2023-04-20T00:03:52;94228.94;;;10.36;79.59
12793;BME280;6460;42.684;23.260;2023-04-20T00:06:19;94227.63;;;10.53;79.11
12793;BME280;6460;42.684;23.260;2023-04-20T00:08:48;94224.25;;;10.59;78.70
12793;BME280;6460;42.684;23.260;2023-04-20T00:11:15;94224.38;;;10.40;78.82
12793;BME280;6460;42.684;23.260;2023-04-20T00:13:42;94220.47;;;10.34;79.98
12793;BME280;6460;42.684;23.260;2023-04-20T00:16:09;94215.41;;;10.55;79.05
12793;BME280;6460;42.684;23.260;2023-04-20T00:18:36;94220.66;;;10.48;78.69
12793;BME280;6460;42.684;23.260;2023-04-20T00:21:04;94209.66;;;10.31;80.39
12793;BME280;6460;42.684;23.260;2023-04-20T00:23:32;94205.38;;;10.52;79.87
12793;BME280;6460;42.684;23.260;2023-04-20T00:26:00;94205.88;;;10.61;79.77
12793;BME280;6460;42.684;23.260;2023-04-20T00:28:27;94214.13;;;10.76;78.62
12793;BME280;6460;42.684;23.260;2023-04-20T00:30:56;94209.63;;;10.83;78.54
12793;BME280;6460;42.684;23.260;2023-04-20T00:33:23;94208.06;;;10.82;78.03
12793;BME280;6460;42.684;23.260;2023-04-20T00:35:50;94209.53;;;10.46;79.04
12793;BME280;6460;42.684;23.260;2023-04-20T00:38:17;94208.00;;;10.75;78.79
12793;BME280;6460;42.684;23.260;2023-04-20T00:40:44;94208.78;;;10.79;78.34
12793;BME280;6460;42.684;23.260;2023-04-20T00:43:19;94207.91;;;10.68;79.33
12793;BME280;6460;42.684;23.260;2023-04-20T00:45:47;94205.56;;;10.67;79.64
12793;BME280;6460;42.684;23.260;2023-04-20T00:48:16;94208.31;;;10.44;80.43
12793;BME280;6460;42.684;23.260;2023-04-20T00:50:44;94204.03;;;10.66;79.82
12793;BME280;6460;42.684;23.260;2023-04-20T00:53:12;94198.78;;;10.76;79.96
12793;BME280;6460;42.684;23.260;2023-04-20T00:55:42;94206.22;;;10.60;80.73
12793;BME280;6460;42.684;23.260;2023-04-20T00:58:10;94202.25;;;10.50;81.26
12793;BME280;6460;42.684;23.260;2023-04-20T01:05:47;94198.13;;;10.27;82.74
12793;BME280;6460;42.684;23.260;2023-04-20T01:08:14;94197.38;;;10.30;83.07
12793;BME280;6460;42.684;23.260;2023-04-20T01:10:41;94191.19;;;10.26;83.49
12793;BME280;6460;42.684;23.260;2023-04-20T01:13:09;94202.81;;;10.33;83.73
12793;BME280;6460;42.684;23.260;2023-04-20T01:15:36;94196.81;;;10.17;83.99
12793;BME280;6460;42.684;23.260;2023-04-20T01:18:04;94196.69;;;10.10;85.25
12793;BME280;6460;42.684;23.260;2023-04-20T01:20:31;94202.19;;;10.17;84.85
12793;BME280;6460;42.684;23.260;2023-04-20T01:23:00;94201.53;;;10.01;85.44
12793;BME280;6460;42.684;23.260;2023-04-20T01:25:28;94198.72;;;10.17;85.26
12793;BME280;6460;42.684;23.260;2023-04-20T01:27:55;94195.06;;;10.05;85.86
12793;BME280;6460;42.684;23.260;2023-04-20T01:30:22;94195.84;;;10.06;85.94
12793;BME280;6460;42.684;23.260;2023-04-20T01:32:49;94190.41;;;10.25;84.89
12793;BME280;6460;42.684;23.260;2023-04-20T01:45:39;94178.00;;;9.68;88.19
12793;BME280;6460;42.684;23.260;2023-04-20T01:48:06;94169.75;;;9.80;87.62
12793;BME280;6460;42.684;23.260;2023-04-20T01:50:34;94171.56;;;9.99;86.24
12793;BME280;6460;42.684;23.260;2023-04-20T02:08:27;94164.31;;;10.26;84.46
12793;BME280;6460;42.684;23.260;2023-04-20T02:10:54;94163.56;;;10.25;84.28
12793;BME280;6460;42.684;23.260;2023-04-20T02:13:22;94164.72;;;10.28;83.74
12793;BME280;6460;42.684;23.260;2023-04-20T02:15:49;94173.28;;;10.33;83.39
12793;BME280;6460;42.684;23.260;2023-04-20T02:18:16;94162.91;;;10.09;83.44
12793;BME280;6460;42.684;23.260;2023-04-20T02:20:44;94165.53;;;10.05;84.08
12793;BME280;6460;42.684;23.260;2023-04-20T02:23:11;94167.09;;;10.06;84.32
12793;BME280;6460;42.684;23.260;2023-04-20T02:25:41;94170.84;;;10.02;83.42
12793;BME280;6460;42.684;23.260;2023-04-20T02:28:08;94166.56;;;10.20;82.56
12793;BME280;6460;42.684;23.260;2023-04-20T02:30:35;94165.91;;;10.04;83.08
12793;BME280;6460;42.684;23.260;2023-04-20T02:33:02;94169.53;;;10.15;82.46
12793;BME280;6460;42.684;23.260;2023-04-20T02:35:30;94172.28;;;10.19;83.31
12793;BME280;6460;42.684;23.260;2023-04-20T02:37:57;94168.19;;;10.28;83.89
12793;BME280;6460;42.684;23.260;2023-04-20T02:40:24;94177.34;;;10.24;85.31
12793;BME280;6460;42.684;23.260;2023-04-20T02:42:53;94179.84;;;10.13;86.00
12793;BME280;6460;42.684;23.260;2023-04-20T02:45:20;94177.16;;;10.13;86.11
12793;BME280;6460;42.684;23.260;2023-04-20T02:47:47;94174.91;;;10.15;86.14
12793;BME280;6460;42.684;23.260;2023-04-20T02:50:14;94175.94;;;10.07;86.72
12793;BME280;6460;42.684;23.260;2023-04-20T02:52:41;94176.22;;;10.02;85.89
12793;BME280;6460;42.684;23.260;2023-04-20T02:55:09;94176.28;;;10.05;85.99
12793;BME280;6460;42.684;23.260;2023-04-20T02:57:36;94176.00;;;9.88;85.51
12793;BME280;6460;42.684;23.260;2023-04-20T03:00:05;94177.50;;;10.11;83.84
12793;BME280;6460;42.684;23.260;2023-04-20T03:02:34;94176.84;;;9.92;84.14
12793;BME280;6460;42.684;23.260;2023-04-20T03:05:01;94180.88;;;10.05;83.64
12793;BME280;6460;42.684;23.260;2023-04-20T03:07:29;94174.69;;;10.01;83.95
12793;BME280;6460;42.684;23.260;2023-04-20T03:09:57;94177.88;;;9.84;84.52
12793;BME280;6460;42.684;23.260;2023-04-20T03:12:25;94174.13;;;9.88;84.29
12793;BME280;6460;42.684;23.260;2023-04-20T03:14:52;94166.84;;;9.89;84.60
12793;BME280;6460;42.684;23.260;2023-04-20T03:17:21;94172.84;;;10.05;83.76
12793;BME280;6460;42.684;23.260;2023-04-20T03:19:48;94173.81;;;9.71;84.32
12793;BME280;6460;42.684;23.260;2023-04-20T03:22:15;94172.81;;;9.79;85.22
12793;BME280;6460;42.684;23.260;2023-04-20T03:24:43;94168.16;;;9.76;86.10
12793;BME280;6460;42.684;23.260;2023-04-20T03:27:12;94175.28;;;9.91;85.83
12793;BME280;6460;42.684;23.260;2023-04-20T03:29:39;94171.34;;;10.07;84.47
12793;BME280;6460;42.684;23.260;2023-04-20T03:32:06;94170.97;;;10.09;84.85
12793;BME280;6460;42.684;23.260;2023-04-20T03:34:34;94175.16;;;10.06;83.81
12793;BME280;6460;42.684;23.260;2023-04-20T03:37:01;94178.47;;;10.23;83.65
12793;BME280;6460;42.684;23.260;2023-04-20T03:39:28;94178.28;;;10.12;84.01
12793;BME280;6460;42.684;23.260;2023-04-20T03:41:56;94181.13;;;10.19;83.76
12793;BME280;6460;42.684;23.260;2023-04-20T03:44:24;94185.94;;;10.10;84.61
12793;BME280;6460;42.684;23.260;2023-04-20T03:46:51;94180.81;;;10.24;83.60
12793;BME280;6460;42.684;23.260;2023-04-20T03:49:22;94180.91;;;10.31;83.67
12793;BME280;6460;42.684;23.260;2023-04-20T03:51:51;94183.50;;;10.24;83.50
12793;BME280;6460;42.684;23.260;2023-04-20T04:12:59;94190.03;;;9.78;83.36
12793;BME280;6460;42.684;23.260;2023-04-20T04:15:26;94183.53;;;10.01;82.90
12793;BME280;6460;42.684;23.260;2023-04-20T04:17:55;94188.00;;;9.94;83.94
12793;BME280;6460;42.684;23.260;2023-04-20T04:20:22;94188.84;;;9.98;83.07
12793;BME280;6460;42.684;23.260;2023-04-20T04:22:49;94190.47;;;10.06;83.61
12793;BME280;6460;42.684;23.260;2023-04-20T04:25:17;94190.06;;;10.04;82.63
12793;BME280;6460;42.684;23.260;2023-04-20T04:27:44;94188.03;;;10.20;81.70
12793;BME280;6460;42.684;23.260;2023-04-20T04:30:14;94186.75;;;9.88;83.39
12793;BME280;6460;42.684;23.260;2023-04-20T04:32:43;94190.88;;;9.82;83.85
12793;BME280;6460;42.684;23.260;2023-04-20T04:35:11;94200.22;;;9.91;83.38
12793;BME280;6460;42.684;23.260;2023-04-20T04:37:39;94200.25;;;9.69;84.55
12793;BME280;6460;42.684;23.260;2023-04-20T04:40:08;94187.34;;;9.78;84.34
12793;BME280;6460;42.684;23.260;2023-04-20T04:42:35;94198.94;;;9.82;84.70
12793;BME280;6460;42.684;23.260;2023-04-20T04:45:03;94207.44;;;9.87;84.52
12793;BME280;6460;42.684;23.260;2023-04-20T04:47:34;94209.78;;;9.89;84.00
12793;BME280;6460;42.684;23.260;2023-04-20T04:50:02;94205.94;;;9.90;84.15
12793;BME280;6460;42.684;23.260;2023-04-20T04:52:31;94204.09;;;9.94;83.85
12793;BME280;6460;42.684;23.260;2023-04-20T04:54:58;94204.09;;;10.17;83.15
12793;BME280;6460;42.684;23.260;2023-04-20T04:57:25;94223.63;;;10.14;83.33
12793;BME280;6460;42.684;23.260;2023-04-20T04:59:52;94227.59;;;9.78;84.38
12793;BME280;6460;42.684;23.260;2023-04-20T05:02:19;94224.84;;;9.97;84.57
12793;BME280;6460;42.684;23.260;2023-04-20T05:04:48;94235.53;;;10.16;82.85
12793;BME280;6460;42.684;23.260;2023-04-20T05:07:15;94218.75;;;10.00;84.47
12793;BME280;6460;42.684;23.260;2023-04-20T05:09:42;94221.72;;;10.14;83.89
12793;BME280;6460;42.684;23.260;2023-04-20T05:12:09;94243.88;;;10.11;83.18
12793;BME280;6460;42.684;23.260;2023-04-20T05:14:37;94223.66;;;9.94;84.44
12793;BME280;6460;42.684;23.260;2023-04-20T05:17:04;94224.53;;;10.02;84.55
12793;BME280;6460;42.684;23.260;2023-04-20T05:19:31;94222.91;;;10.17;83.98
12793;BME280;6460;42.684;23.260;2023-04-20T05:21:59;94230.28;;;10.23;82.98
12793;BME280;6460;42.684;23.260;2023-04-20T05:24:27;94215.09;;;10.11;83.79
12793;BME280;6460;42.684;23.260;2023-04-20T05:26:54;94224.59;;;10.05;83.62
12793;BME280;6460;42.684;23.260;2023-04-20T05:29:22;94235.41;;;10.09;84.77
12793;BME280;6460;42.684;23.260;2023-04-20T05:31:49;94230.03;;;9.86;85.28
12793;BME280;6460;42.684;23.260;2023-04-20T05:34:17;94227.88;;;10.18;84.98
12793;BME280;6460;42.684;23.260;2023-04-20T05:36:45;94228.25;;;9.94;85.38
12793;BME280;6460;42.684;23.260;2023-04-20T05:39:13;94235.28;;;10.02;85.62
12793;BME280;6460;42.684;23.260;2023-04-20T05:41:41;94238.53;;;9.88;86.24
12793;BME280;6460;42.684;23.260;2023-04-20T05:44:08;94229.00;;;10.14;86.38
12793;BME280;6460;42.684;23.260;2023-04-20T05:46:35;94239.97;;;10.05;86.53
12793;BME280;6460;42.684;23.260;2023-04-20T05:49:02;94233.97;;;10.15;85.79
12793;BME280;6460;42.684;23.260;2023-04-20T05:51:29;94241.81;;;10.01;87.08
12793;BME280;6460;42.684;23.260;2023-04-20T05:53:59;94232.31;;;9.84;87.43
12793;BME280;6460;42.684;23.260;2023-04-20T05:56:28;94237.34;;;9.86;88.15
12793;BME280;6460;42.684;23.260;2023-04-20T05:59:03;94236.06;;;10.02;87.06
12793;BME280;6460;42.684;23.260;2023-04-20T06:01:31;94229.44;;;9.96;87.83
12793;BME280;6460;42.684;23.260;2023-04-20T06:03:59;94231.00;;;9.75;89.76
12793;BME280;6460;42.684;23.260;2023-04-20T06:06:34;94239.72;;;9.91;90.16
12793;BME280;6460;42.684;23.260;2023-04-20T06:09:05;94230.53;;;9.92;90.48
12793;BME280;6460;42.684;23.260;2023-04-20T06:11:41;94234.00;;;9.70;91.89
12793;BME280;6460;42.684;23.260;2023-04-20T06:14:12;94232.44;;;9.69;92.55
12793;BME280;6460;42.684;23.260;2023-04-20T06:16:40;94229.81;;;9.72;92.29
12793;BME280;6460;42.684;23.260;2023-04-20T06:19:11;94226.81;;;9.77;91.76
12793;BME280;6460;42.684;23.260;2023-04-20T06:21:38;94233.97;;;9.92;91.63
12793;BME280;6460;42.684;23.260;2023-04-20T06:24:06;94235.59;;;9.97;90.76
12793;BME280;6460;42.684;23.260;2023-04-20T06:26:33;94238.50;;;10.11;90.55
12793;BME280;6460;42.684;23.260;2023-04-20T06:29:03;94233.81;;;10.04;90.85
12793;BME280;6460;42.684;23.260;2023-04-20T06:31:45;94239.97;;;10.05;90.28
12793;BME280;6460;42.684;23.260;2023-04-20T06:34:15;94240.03;;;10.12;89.41
12793;BME280;6460;42.684;23.260;2023-04-20T06:36:48;94254.38;;;9.97;89.30
12793;BME280;6460;42.684;23.260;2023-04-20T06:39:38;94245.75;;;9.84;90.49
12793;BME280;6460;42.684;23.260;2023-04-20T06:42:06;94239.59;;;10.29;90.33
12793;BME280;6460;42.684;23.260;2023-04-20T06:44:35;94243.41;;;10.28;89.05
12793;BME280;6460;42.684;23.260;2023-04-20T06:47:02;94263.88;;;10.36;88.83
12793;BME280;6460;42.684;23.260;2023-04-20T06:49:29;94258.78;;;10.31;89.25
12793;BME280;6460;42.684;23.260;2023-04-20T06:51:56;94251.25;;;10.14;91.43
12793;BME280;6460;42.684;23.260;2023-04-20T06:54:22;94268.72;;;9.82;93.05
12793;BME280;6460;42.684;23.260;2023-04-20T06:56:49;94262.84;;;9.99;93.61
12793;BME280;6460;42.684;23.260;2023-04-20T06:59:16;94260.66;;;10.27;92.78
12793;BME280;6460;42.684;23.260;2023-04-20T07:01:45;94257.25;;;10.30;93.64
12793;BME280;6460;42.684;23.260;2023-04-20T07:04:12;94259.94;;;10.30;91.82
12793;BME280;6460;42.684;23.260;2023-04-20T07:06:39;94272.97;;;10.09;93.05
12793;BME280;6460;42.684;23.260;2023-04-20T07:09:06;94265.25;;;10.04;94.50
12793;BME280;6460;42.684;23.260;2023-04-20T07:11:33;94260.00;;;10.34;95.76
12793;BME280;6460;42.684;23.260;2023-04-20T07:14:00;94262.03;;;10.44;94.85
12793;BME280;6460;42.684;23.260;2023-04-20T07:16:27;94271.44;;;10.57;94.92
12793;BME280;6460;42.684;23.260;2023-04-20T07:18:56;94269.44;;;10.24;91.55
12793;BME280;6460;42.684;23.260;2023-04-20T07:21:22;94262.63;;;10.30;92.18
12793;BME280;6460;42.684;23.260;2023-04-20T07:23:49;94271.03;;;10.55;91.81
12793;BME280;6460;42.684;23.260;2023-04-20T07:26:16;94272.13;;;10.50;90.96
12793;BME280;6460;42.684;23.260;2023-04-20T07:28:44;94260.56;;;10.46;93.13
12793;BME280;6460;42.684;23.260;2023-04-20T07:31:11;94273.63;;;10.48;91.09
12793;BME280;6460;42.684;23.260;2023-04-20T07:33:38;94268.09;;;10.63;90.60
12793;BME280;6460;42.684;23.260;2023-04-20T07:36:07;94272.53;;;10.79;89.36
12793;BME280;6460;42.684;23.260;2023-04-20T07:38:35;94269.06;;;11.08;87.45
12793;BME280;6460;42.684;23.260;2023-04-20T07:41:02;94261.00;;;10.78;86.67
12793;BME280;6460;42.684;23.260;2023-04-20T07:43:29;94271.78;;;10.78;86.13
12793;BME280;6460;42.684;23.260;2023-04-20T07:45:56;94265.06;;;10.95;86.34
12793;BME280;6460;42.684;23.260;2023-04-20T07:48:23;94262.06;;;11.00;86.03
12793;BME280;6460;42.684;23.260;2023-04-20T07:50:50;94262.56;;;11.42;86.15
12793;BME280;6460;42.684;23.260;2023-04-20T07:53:18;94270.63;;;11.09;85.60
12793;BME280;6460;42.684;23.260;2023-04-20T07:55:45;94267.88;;;11.35;84.49
12793;BME280;6460;42.684;23.260;2023-04-20T07:58:13;94261.97;;;11.23;85.58
12793;BME280;6460;42.684;23.260;2023-04-20T08:00:41;94271.34;;;11.39;84.59
12793;BME280;6460;42.684;23.260;2023-04-20T08:03:08;94268.41;;;11.48;83.53
12793;BME280;6460;42.684;23.260;2023-04-20T08:05:37;94261.22;;;11.96;84.19
12793;BME280;6460;42.684;23.260;2023-04-20T08:08:05;94260.94;;;11.67;83.66
12793;BME280;6460;42.684;23.260;2023-04-20T08:10:34;94264.66;;;11.93;80.94
12793;BME280;6460;42.684;23.260;2023-04-20T08:13:01;94271.50;;;11.83;81.51
12793;BME280;6460;42.684;23.260;2023-04-20T08:15:28;94273.41;;;11.83;80.38
12793;BME280;6460;42.684;23.260;2023-04-20T08:17:55;94270.81;;;11.97;80.92
12793;BME280;6460;42.684;23.260;2023-04-20T08:20:22;94273.53;;;11.97;80.55
12793;BME280;6460;42.684;23.260;2023-04-20T08:22:49;94276.25;;;12.00;80.20
12793;BME280;6460;42.684;23.260;2023-04-20T08:25:17;94269.75;;;12.05;80.95
12793;BME280;6460;42.684;23.260;2023-04-20T08:27:45;94272.06;;;12.03;80.84
12793;BME280;6460;42.684;23.260;2023-04-20T08:30:12;94273.53;;;11.97;80.01
12793;BME280;6460;42.684;23.260;2023-04-20T08:32:39;94263.16;;;11.99;81.26
12793;BME280;6460;42.684;23.260;2023-04-20T08:35:07;94270.91;;;12.04;80.07
12793;BME280;6460;42.684;23.260;2023-04-20T08:37:35;94273.88;;;11.92;80.41
12793;BME280;6460;42.684;23.260;2023-04-20T08:40:03;94270.81;;;11.97;82.18
12793;BME280;6460;42.684;23.260;2023-04-20T08:42:30;94270.09;;;11.96;80.35
12793;BME280;6460;42.684;23.260;2023-04-20T08:44:58;94278.81;;;11.86;81.08
12793;BME280;6460;42.684;23.260;2023-04-20T08:47:26;94282.94;;;11.43;82.03
12793;BME280;6460;42.684;23.260;2023-04-20T08:49:54;94289.59;;;11.86;81.37
12793;BME280;6460;42.684;23.260;2023-04-20T08:52:22;94275.88;;;11.65;81.29
12793;BME280;6460;42.684;23.260;2023-04-20T08:54:49;94278.41;;;11.84;81.38
12793;BME280;6460;42.684;23.260;2023-04-20T08:57:16;94278.78;;;11.49;81.21
12793;BME280;6460;42.684;23.260;2023-04-20T08:59:43;94275.28;;;11.79;81.13
12793;BME280;6460;42.684;23.260;2023-04-20T09:02:12;94279.38;;;11.69;81.26
12793;BME280;6460;42.684;23.260;2023-04-20T09:04:39;94270.72;;;11.83;80.55
12793;BME280;6460;42.684;23.260;2023-04-20T09:07:16;94277.69;;;11.91;80.43
12793;BME280;6460;42.684;23.260;2023-04-20T09:09:53;94270.38;;;11.88;85.77
12793;BME280;6460;42.684;23.260;2023-04-20T09:12:20;94270.22;;;12.14;87.26
12793;BME280;6460;42.684;23.260;2023-04-20T09:14:47;94277.13;;;11.38;83.25
12793;BME280;6460;42.684;23.260;2023-04-20T09:17:16;94273.41;;;11.49;83.69
12793;BME280;6460;42.684;23.260;2023-04-20T09:19:44;94274.19;;;11.50;83.04
12793;BME280;6460;42.684;23.260;2023-04-20T09:22:11;94265.59;;;11.71;81.92
12793;BME280;6460;42.684;23.260;2023-04-20T09:24:39;94272.69;;;11.56;81.85
12793;BME280;6460;42.684;23.260;2023-04-20T09:27:14;94263.63;;;11.67;82.03
12793;BME280;6460;42.684;23.260;2023-04-20T09:29:41;94270.44;;;11.61;81.39
12793;BME280;6460;42.684;23.260;2023-04-20T09:32:21;94267.28;;;11.52;81.57
12793;BME280;6460;42.684;23.260;2023-04-20T09:34:48;94271.31;;;11.69;81.67
12793;BME280;6460;42.684;23.260;2023-04-20T09:37:16;94264.34;;;11.64;80.85
12793;BME280;6460;42.684;23.260;2023-04-20T09:39:43;94270.53;;;11.68;81.25
12793;BME280;6460;42.684;23.260;2023-04-20T09:42:11;94262.34;;;11.95;78.99
12793;BME280;6460;42.684;23.260;2023-04-20T09:44:39;94258.25;;;12.08;78.90
12793;BME280;6460;42.684;23.260;2023-04-20T09:47:06;94247.38;;;12.48;77.04
12793;BME280;6460;42.684;23.260;2023-04-20T09:49:35;94253.69;;;12.70;75.66
12793;BME280;6460;42.684;23.260;2023-04-20T09:52:03;94254.88;;;12.72;75.85
12793;BME280;6460;42.684;23.260;2023-04-20T09:54:30;94248.84;;;12.39;75.39
12793;BME280;6460;42.684;23.260;2023-04-20T09:56:58;94255.63;;;12.69;75.37
12793;BME280;6460;42.684;23.260;2023-04-20T09:59:26;94259.16;;;12.81;74.95
12793;BME280;6460;42.684;23.260;2023-04-20T10:01:54;94253.72;;;12.73;75.57
12793;BME280;6460;42.684;23.260;2023-04-20T10:04:21;94241.50;;;12.94;74.99
12793;BME280;6460;42.684;23.260;2023-04-20T10:06:53;94240.03;;;13.07;75.01
12793;BME280;6460;42.684;23.260;2023-04-20T10:09:24;94240.00;;;13.00;74.56
12793;BME280;6460;42.684;23.260;2023-04-20T10:11:51;94236.03;;;12.83;74.58
12793;BME280;6460;42.684;23.260;2023-04-20T10:14:20;94247.59;;;12.84;76.01
12793;BME280;6460;42.684;23.260;2023-04-20T10:16:57;94239.03;;;12.67;75.78
12793;BME280;6460;42.684;23.260;2023-04-20T10:19:35;94228.34;;;12.82;75.35
12793;BME280;6460;42.684;23.260;2023-04-20T10:22:04;94228.00;;;12.94;74.72
12793;BME280;6460;42.684;23.260;2023-04-20T10:24:31;94232.28;;;12.98;74.44
12793;BME280;6460;42.684;23.260;2023-04-20T10:26:58;94226.97;;;13.12;74.31
12793;BME280;6460;42.684;23.260;2023-04-20T10:29:26;94232.13;;;13.53;71.88
12793;BME280;6460;42.684;23.260;2023-04-20T10:31:54;94227.09;;;13.51;71.80
12793;BME280;6460;42.684;23.260;2023-04-20T10:34:29;94222.16;;;13.74;68.99
12793;BME280;6460;42.684;23.260;2023-04-20T10:37:07;94222.56;;;13.91;68.45
12793;BME280;6460;42.684;23.260;2023-04-20T10:39:35;94223.28;;;13.73;71.07
12793;BME280;6460;42.684;23.260;2023-04-20T10:42:03;94212.09;;;13.82;71.06
12793;BME280;6460;42.684;23.260;2023-04-20T10:44:30;94213.69;;;13.97;71.82
12793;BME280;6460;42.684;23.260;2023-04-20T10:46:59;94216.38;;;13.83;71.63
12793;BME280;6460;42.684;23.260;2023-04-20T10:49:28;94224.88;;;14.17;67.63
12793;BME280;6460;42.684;23.260;2023-04-20T10:51:56;94222.94;;;14.21;67.97
12793;BME280;6460;42.684;23.260;2023-04-20T10:54:24;94217.94;;;14.09;69.11
12793;BME280;6460;42.684;23.260;2023-04-20T10:56:52;94212.13;;;14.31;68.85
12793;BME280;6460;42.684;23.260;2023-04-20T10:59:20;94221.81;;;14.57;67.22
12793;BME280;6460;42.684;23.260;2023-04-20T11:01:48;94210.00;;;15.27;66.41
12793;BME280;6460;42.684;23.260;2023-04-20T11:04:16;94208.13;;;15.07;67.45
12793;BME280;6460;42.684;23.260;2023-04-20T11:06:44;94218.47;;;15.33;66.08
12793;BME280;6460;42.684;23.260;2023-04-20T11:09:16;94211.34;;;14.52;67.96
12793;BME280;6460;42.684;23.260;2023-04-20T11:11:56;94207.06;;;14.87;66.88
12793;BME280;6460;42.684;23.260;2023-04-20T11:14:30;94210.44;;;15.15;65.96
12793;BME280;6460;42.684;23.260;2023-04-20T11:16:58;94203.81;;;15.27;63.69
12793;BME280;6460;42.684;23.260;2023-04-20T11:19:26;94217.59;;;15.57;63.64
12793;BME280;6460;42.684;23.260;2023-04-20T11:21:53;94207.84;;;14.80;64.41
12793;BME280;6460;42.684;23.260;2023-04-20T11:24:25;94195.53;;;15.62;63.58
12793;BME280;6460;42.684;23.260;2023-04-20T11:26:55;94194.28;;;15.77;63.93
12793;BME280;6460;42.684;23.260;2023-04-20T11:29:34;94192.56;;;16.90;58.60
12793;BME280;6460;42.684;23.260;2023-04-20T11:32:04;94185.78;;;17.05;57.35
12793;BME280;6460;42.684;23.260;2023-04-20T11:34:32;94179.06;;;17.17;53.49
12793;BME280;6460;42.684;23.260;2023-04-20T11:37:02;94177.53;;;17.16;54.16
12793;BME280;6460;42.684;23.260;2023-04-20T11:39:35;94179.84;;;16.42;55.94
12793;BME280;6460;42.684;23.260;2023-04-20T11:42:05;94172.63;;;16.66;55.95
12793;BME280;6460;42.684;23.260;2023-04-20T11:44:32;94183.88;;;16.24;57.46
12793;BME280;6460;42.684;23.260;2023-04-20T11:47:01;94176.47;;;16.24;58.69
12793;BME280;6460;42.684;23.260;2023-04-20T11:49:30;94166.78;;;16.30;56.29
12793;BME280;6460;42.684;23.260;2023-04-20T11:52:00;94164.44;;;16.29;56.23
12793;BME280;6460;42.684;23.260;2023-04-20T11:54:28;94161.00;;;16.25;59.08
12793;BME280;6460;42.684;23.260;2023-04-20T11:56:59;94166.28;;;16.42;57.88
12793;BME280;6460;42.684;23.260;2023-04-20T12:02:34;94168.28;;;16.31;58.15
12793;BME280;6460;42.684;23.260;2023-04-20T12:05:13;94166.84;;;16.20;57.32
12793;BME280;6460;42.684;23.260;2023-04-20T12:07:40;94170.09;;;15.38;60.72
12793;BME280;6460;42.684;23.260;2023-04-20T12:10:08;94169.72;;;15.36;60.31
12793;BME280;6460;42.684;23.260;2023-04-20T12:12:35;94179.97;;;14.90;65.07
12793;BME280;6460;42.684;23.260;2023-04-20T12:18:40;94178.94;;;14.03;71.30
12793;BME280;6460;42.684;23.260;2023-04-20T12:21:16;94183.19;;;13.72;72.50
12793;BME280;6460;42.684;23.260;2023-04-20T12:23:52;94177.00;;;13.86;72.90
12793;BME280;6460;42.684;23.260;2023-04-20T12:26:25;94182.41;;;13.64;73.21
12793;BME280;6460;42.684;23.260;2023-04-20T12:29:06;94178.19;;;13.85;74.48
12793;BME280;6460;42.684;23.260;2023-04-20T12:31:47;94174.69;;;13.98;74.36
12793;BME280;6460;42.684;23.260;2023-04-20T12:37:21;94155.41;;;14.35;73.69
12793;BME280;6460;42.684;23.260;2023-04-20T12:40:23;94148.78;;;14.50;71.39
12793;BME280;6460;42.684;23.260;2023-04-20T12:51:33;94158.25;;;15.15;68.38
12793;BME280;6460;42.684;23.260;2023-04-20T12:57:42;94139.78;;;15.65;64.50
12793;BME280;6460;42.684;23.260;2023-04-20T13:00:26;94140.72;;;15.96;64.35
12793;BME280;6460;42.684;23.260;2023-04-20T13:03:05;94133.94;;;16.18;62.25
12793;BME280;6460;42.684;23.260;2023-04-20T13:05:43;94138.19;;;16.19;61.25
12793;BME280;6460;42.684;23.260;2023-04-20T13:08:24;94142.56;;;16.06;60.65
12793;BME280;6460;42.684;23.260;2023-04-20T13:10:51;94145.13;;;15.75;59.34
12793;BME280;6460;42.684;23.260;2023-04-20T13:13:20;94137.34;;;15.81;59.05
12793;BME280;6460;42.684;23.260;2023-04-20T13:15:47;94140.84;;;15.81;59.47
12793;BME280;6460;42.684;23.260;2023-04-20T13:18:14;94141.53;;;15.89;58.23
12793;BME280;6460;42.684;23.260;2023-04-20T13:20:41;94136.88;;;15.89;56.98
12793;BME280;6460;42.684;23.260;2023-04-20T13:23:09;94136.56;;;15.84;60.20
12793;BME280;6460;42.684;23.260;2023-04-20T13:25:36;94141.66;;;15.75;60.38
12793;BME280;6460;42.684;23.260;2023-04-20T13:28:04;94142.53;;;15.58;61.79
12793;BME280;6460;42.684;23.260;2023-04-20T13:30:36;94138.53;;;15.76;62.74
12793;BME280;6460;42.684;23.260;2023-04-20T13:33:24;94146.16;;;15.33;63.75
12793;BME280;6460;42.684;23.260;2023-04-20T13:36:12;94145.50;;;15.12;65.88
12793;BME280;6460;42.684;23.260;2023-04-20T13:39:08;94141.13;;;15.32;66.04
12793;BME280;6460;42.684;23.260;2023-04-20T13:45:35;94137.19;;;15.47;66.81
12793;BME280;6460;42.684;23.260;2023-04-20T13:48:05;94134.13;;;15.38;67.58
12793;BME280;6460;42.684;23.260;2023-04-20T13:50:32;94134.22;;;15.24;67.18
12793;BME280;6460;42.684;23.260;2023-04-20T13:52:59;94136.28;;;14.92;69.07
12793;BME280;6460;42.684;23.260;2023-04-20T13:55:27;94134.00;;;14.87;69.15
12793;BME280;6460;42.684;23.260;2023-04-20T13:57:56;94135.03;;;15.10;68.98
12793;BME280;6460;42.684;23.260;2023-04-20T14:00:33;94126.53;;;15.12;68.95
12793;BME280;6460;42.684;23.260;2023-04-20T14:03:02;94134.22;;;15.20;69.22
12793;BME280;6460;42.684;23.260;2023-04-20T14:05:31;94140.47;;;15.10;69.13
12793;BME280;6460;42.684;23.260;2023-04-20T14:07:59;94145.53;;;14.98;69.41
12793;BME280;6460;42.684;23.260;2023-04-20T14:10:40;94146.69;;;15.00;69.31
12793;BME280;6460;42.684;23.260;2023-04-20T14:13:09;94160.66;;;14.92;68.07
12793;BME280;6460;42.684;23.260;2023-04-20T14:15:38;94154.53;;;14.73;69.08
12793;BME280;6460;42.684;23.260;2023-04-20T14:18:06;94154.81;;;14.97;68.73
12793;BME280;6460;42.684;23.260;2023-04-20T14:20:39;94145.88;;;15.07;69.22
12793;BME280;6460;42.684;23.260;2023-04-20T14:23:08;94153.56;;;15.19;70.30
12793;BME280;6460;42.684;23.260;2023-04-20T14:25:48;94162.41;;;15.33;70.10
12793;BME280;6460;42.684;23.260;2023-04-20T14:28:16;94162.75;;;15.35;67.48